Freeman, Iowa
Current Conditions -  °F | °C
As of 2:53 AM on Thursday 27 Nov 2014 (Local Time) from KMCW Reporting Station
Clear Clear  
Wind Chill: -14°   Ceiling: Unl
Heat Index:   Visibility: 10mi
Dew Point: -1°   Wind: 14mph
Humidity: 80%   Direction: 320°NW
Pressure: 30.42"   Gusts: NA
Location:  43.1451°N, 93.1385°W
Report Text: KMCW 270853Z AUTO 32012KT 10SM CLR M16/M18 A3042 RMK AO2 SLP320 60000 T11561183 53015
Loading
Personal Weather Stations






























Interactive Weather Map New forecast layout! Learn more

10-Day Weather Forecast

Advertisements
Track Severe Weather on mobile